sensor_id;sensor_type;location;lat;lon;timestamp;temperature;humidity
30628;DHT22;17394;50.890;4.724;2023-05-19T00:01:44;8.10;99.90
30628;DHT22;17394;50.890;4.724;2023-05-19T00:04:12;8.00;99.90
30628;DHT22;17394;50.890;4.724;2023-05-19T00:06:39;8.00;99.90
30628;DHT22;17394;50.890;4.724;2023-05-19T00:09:07;8.00;99.90
30628;DHT22;17394;50.890;4.724;2023-05-19T00:11:33;7.90;99.90
30628;DHT22;17394;50.890;4.724;2023-05-19T00:14:03;7.90;99.90
30628;DHT22;17394;50.890;4.724;2023-05-19T00:16:30;7.90;99.90
30628;DHT22;17394;50.890;4.724;2023-05-19T00:18:56;7.90;99.90
30628;DHT22;17394;50.890;4.724;2023-05-19T00:21:24;7.80;99.90
30628;DHT22;17394;50.890;4.724;2023-05-19T00:23:50;7.90;99.90
30628;DHT22;17394;50.890;4.724;2023-05-19T00:26:17;7.90;99.90
30628;DHT22;17394;50.890;4.724;2023-05-19T00:28:43;7.90;99.90
30628;DHT22;17394;50.890;4.724;2023-05-19T00:31:09;7.80;99.90
30628;DHT22;17394;50.890;4.724;2023-05-19T00:33:35;7.80;99.90
30628;DHT22;17394;50.890;4.724;2023-05-19T00:36:01;7.80;99.90
30628;DHT22;17394;50.890;4.724;2023-05-19T00:38:30;7.70;99.90
30628;DHT22;17394;50.890;4.724;2023-05-19T00:40:57;7.70;99.90
30628;DHT22;17394;50.890;4.724;2023-05-19T00:43:23;7.60;99.90
30628;DHT22;17394;50.890;4.724;2023-05-19T00:45:49;7.60;99.90
30628;DHT22;17394;50.890;4.724;2023-05-19T00:48:15;7.50;99.90
30628;DHT22;17394;50.890;4.724;2023-05-19T00:50:41;7.50;99.90
30628;DHT22;17394;50.890;4.724;2023-05-19T00:53:07;7.40;99.90
30628;DHT22;17394;50.890;4.724;2023-05-19T00:55:33;7.40;99.90
30628;DHT22;17394;50.890;4.724;2023-05-19T00:58:02;7.40;99.90
30628;DHT22;17394;50.890;4.724;2023-05-19T01:00:29;7.30;99.90
30628;DHT22;17394;50.890;4.724;2023-05-19T01:02:55;7.30;99.90
30628;DHT22;17394;50.890;4.724;2023-05-19T01:05:21;7.30;99.90
30628;DHT22;17394;50.890;4.724;2023-05-19T01:07:47;7.20;99.90
30628;DHT22;17394;50.890;4.724;2023-05-19T01:10:21;7.20;99.90
30628;DHT22;17394;50.890;4.724;2023-05-19T01:12:47;7.20;99.90
30628;DHT22;17394;50.890;4.724;2023-05-19T01:15:13;7.10;99.90
30628;DHT22;17394;50.890;4.724;2023-05-19T01:20:18;7.10;99.90
30628;DHT22;17394;50.890;4.724;2023-05-19T01:32:57;7.00;99.90
30628;DHT22;17394;50.890;4.724;2023-05-19T01:35:23;7.00;99.90
30628;DHT22;17394;50.890;4.724;2023-05-19T01:37:51;6.90;99.90
30628;DHT22;17394;50.890;4.724;2023-05-19T01:40:18;6.90;99.90
30628;DHT22;17394;50.890;4.724;2023-05-19T01:42:45;6.90;99.90
30628;DHT22;17394;50.890;4.724;2023-05-19T01:45:11;6.80;99.90
30628;DHT22;17394;50.890;4.724;2023-05-19T01:47:39;6.80;99.90
30628;DHT22;17394;50.890;4.724;2023-05-19T01:50:06;6.80;99.90
30628;DHT22;17394;50.890;4.724;2023-05-19T01:52:32;6.80;99.90
30628;DHT22;17394;50.890;4.724;2023-05-19T01:54:58;6.70;99.90
30628;DHT22;17394;50.890;4.724;2023-05-19T01:57:33;6.70;99.90
30628;DHT22;17394;50.890;4.724;2023-05-19T02:00:06;6.70;99.90
30628;DHT22;17394;50.890;4.724;2023-05-19T02:02:42;6.70;99.90
30628;DHT22;17394;50.890;4.724;2023-05-19T02:05:58;6.60;99.90
30628;DHT22;17394;50.890;4.724;2023-05-19T02:10:35;6.60;99.90
30628;DHT22;17394;50.890;4.724;2023-05-19T02:13:03;6.60;99.90
30628;DHT22;17394;50.890;4.724;2023-05-19T02:15:33;6.60;99.90
30628;DHT22;17394;50.890;4.724;2023-05-19T02:17:59;6.50;99.90
30628;DHT22;17394;50.890;4.724;2023-05-19T02:20:29;6.50;99.90
30628;DHT22;17394;50.890;4.724;2023-05-19T02:22:55;6.50;99.90
30628;DHT22;17394;50.890;4.724;2023-05-19T02:25:22;6.50;99.90
30628;DHT22;17394;50.890;4.724;2023-05-19T02:27:49;6.50;99.90
30628;DHT22;17394;50.890;4.724;2023-05-19T02:30:16;6.50;99.90
30628;DHT22;17394;50.890;4.724;2023-05-19T02:32:43;6.60;99.90
30628;DHT22;17394;50.890;4.724;2023-05-19T02:35:11;6.50;99.90
30628;DHT22;17394;50.890;4.724;2023-05-19T02:37:37;6.50;99.90
30628;DHT22;17394;50.890;4.724;2023-05-19T02:40:04;6.40;99.90
30628;DHT22;17394;50.890;4.724;2023-05-19T02:42:30;6.40;99.90
30628;DHT22;17394;50.890;4.724;2023-05-19T02:44:56;6.40;99.90
30628;DHT22;17394;50.890;4.724;2023-05-19T02:47:23;6.40;99.90
30628;DHT22;17394;50.890;4.724;2023-05-19T02:49:49;6.40;99.90
30628;DHT22;17394;50.890;4.724;2023-05-19T02:52:15;6.40;99.90
30628;DHT22;17394;50.890;4.724;2023-05-19T02:54:41;6.30;99.90
30628;DHT22;17394;50.890;4.724;2023-05-19T02:57:07;6.30;99.90
30628;DHT22;17394;50.890;4.724;2023-05-19T02:59:33;6.30;99.90
30628;DHT22;17394;50.890;4.724;2023-05-19T03:01:59;6.30;99.90
30628;DHT22;17394;50.890;4.724;2023-05-19T03:04:26;6.20;99.90
30628;DHT22;17394;50.890;4.724;2023-05-19T03:06:52;6.20;99.90
30628;DHT22;17394;50.890;4.724;2023-05-19T03:09:18;6.20;99.90
30628;DHT22;17394;50.890;4.724;2023-05-19T03:11:45;6.20;99.90
30628;DHT22;17394;50.890;4.724;2023-05-19T03:14:10;6.10;99.90
30628;DHT22;17394;50.890;4.724;2023-05-19T03:16:38;6.10;99.90
30628;DHT22;17394;50.890;4.724;2023-05-19T03:19:05;6.10;99.90
30628;DHT22;17394;50.890;4.724;2023-05-19T03:21:31;6.10;99.90
30628;DHT22;17394;50.890;4.724;2023-05-19T03:23:59;6.00;99.90
30628;DHT22;17394;50.890;4.724;2023-05-19T03:26:25;6.00;99.90
30628;DHT22;17394;50.890;4.724;2023-05-19T03:28:51;6.00;99.90
30628;DHT22;17394;50.890;4.724;2023-05-19T03:31:17;6.00;99.90
30628;DHT22;17394;50.890;4.724;2023-05-19T03:33:43;6.00;99.90
30628;DHT22;17394;50.890;4.724;2023-05-19T03:36:09;6.00;99.90
30628;DHT22;17394;50.890;4.724;2023-05-19T03:38:37;6.00;99.90
30628;DHT22;17394;50.890;4.724;2023-05-19T03:41:03;6.00;99.90
30628;DHT22;17394;50.890;4.724;2023-05-19T03:43:30;6.00;99.90
30628;DHT22;17394;50.890;4.724;2023-05-19T03:45:55;5.90;99.90
30628;DHT22;17394;50.890;4.724;2023-05-19T03:48:21;5.90;99.90
30628;DHT22;17394;50.890;4.724;2023-05-19T03:50:47;5.90;99.90
30628;DHT22;17394;50.890;4.724;2023-05-19T03:53:14;5.80;99.90
30628;DHT22;17394;50.890;4.724;2023-05-19T03:55:40;5.80;99.90
30628;DHT22;17394;50.890;4.724;2023-05-19T03:58:06;5.80;99.90
30628;DHT22;17394;50.890;4.724;2023-05-19T04:00:32;5.80;99.90
30628;DHT22;17394;50.890;4.724;2023-05-19T04:02:58;5.70;99.90
30628;DHT22;17394;50.890;4.724;2023-05-19T04:05:24;5.70;99.90
30628;DHT22;17394;50.890;4.724;2023-05-19T04:07:50;5.70;99.90
30628;DHT22;17394;50.890;4.724;2023-05-19T04:10:16;5.70;99.90
30628;DHT22;17394;50.890;4.724;2023-05-19T04:12:43;5.70;99.90
30628;DHT22;17394;50.890;4.724;2023-05-19T04:15:09;5.70;99.90
30628;DHT22;17394;50.890;4.724;2023-05-19T04:17:36;5.70;99.90
30628;DHT22;17394;50.890;4.724;2023-05-19T04:20:02;5.70;99.90
30628;DHT22;17394;50.890;4.724;2023-05-19T04:22:30;5.60;99.90
30628;DHT22;17394;50.890;4.724;2023-05-19T04:24:56;5.60;99.90
30628;DHT22;17394;50.890;4.724;2023-05-19T04:27:23;5.70;99.90
30628;DHT22;17394;50.890;4.724;2023-05-19T04:29:48;5.70;99.90
30628;DHT22;17394;50.890;4.724;2023-05-19T04:32:15;5.70;99.90
30628;DHT22;17394;50.890;4.724;2023-05-19T04:34:42;5.70;99.90
30628;DHT22;17394;50.890;4.724;2023-05-19T04:37:10;5.80;99.90
30628;DHT22;17394;50.890;4.724;2023-05-19T04:39:37;5.70;99.90
30628;DHT22;17394;50.890;4.724;2023-05-19T04:42:04;5.80;99.90
30628;DHT22;17394;50.890;4.724;2023-05-19T04:44:30;5.80;99.90
30628;DHT22;17394;50.890;4.724;2023-05-19T04:46:57;5.90;99.90
30628;DHT22;17394;50.890;4.724;2023-05-19T04:49:24;5.90;99.90
30628;DHT22;17394;50.890;4.724;2023-05-19T04:51:50;6.00;99.90
30628;DHT22;17394;50.890;4.724;2023-05-19T04:54:17;6.00;99.90
30628;DHT22;17394;50.890;4.724;2023-05-19T04:56:43;6.00;99.90
30628;DHT22;17394;50.890;4.724;2023-05-19T04:59:09;6.10;99.90
30628;DHT22;17394;50.890;4.724;2023-05-19T05:01:35;6.10;99.90
30628;DHT22;17394;50.890;4.724;2023-05-19T05:04:04;6.20;99.90
30628;DHT22;17394;50.890;4.724;2023-05-19T05:06:30;6.30;99.90
30628;DHT22;17394;50.890;4.724;2023-05-19T05:08:56;6.30;99.90
30628;DHT22;17394;50.890;4.724;2023-05-19T05:11:22;6.40;99.90
30628;DHT22;17394;50.890;4.724;2023-05-19T05:13:47;6.50;99.90
30628;DHT22;17394;50.890;4.724;2023-05-19T05:16:13;6.60;99.90
30628;DHT22;17394;50.890;4.724;2023-05-19T05:18:39;6.80;99.90
30628;DHT22;17394;50.890;4.724;2023-05-19T05:21:05;6.90;99.90
30628;DHT22;17394;50.890;4.724;2023-05-19T05:23:31;6.90;99.90
30628;DHT22;17394;50.890;4.724;2023-05-19T05:25:57;7.00;99.90
30628;DHT22;17394;50.890;4.724;2023-05-19T05:28:23;7.10;99.90
30628;DHT22;17394;50.890;4.724;2023-05-19T05:30:48;7.20;99.90
30628;DHT22;17394;50.890;4.724;2023-05-19T05:33:15;7.20;99.90
30628;DHT22;17394;50.890;4.724;2023-05-19T05:35:41;7.30;99.90
30628;DHT22;17394;50.890;4.724;2023-05-19T05:38:07;7.30;99.90
30628;DHT22;17394;50.890;4.724;2023-05-19T05:40:32;7.40;99.90
30628;DHT22;17394;50.890;4.724;2023-05-19T05:42:58;7.50;99.90
30628;DHT22;17394;50.890;4.724;2023-05-19T05:45:24;7.60;99.90
30628;DHT22;17394;50.890;4.724;2023-05-19T05:47:50;7.70;99.90
30628;DHT22;17394;50.890;4.724;2023-05-19T05:50:16;7.70;99.90
30628;DHT22;17394;50.890;4.724;2023-05-19T05:52:43;7.80;99.90
30628;DHT22;17394;50.890;4.724;2023-05-19T05:55:10;8.00;99.90
30628;DHT22;17394;50.890;4.724;2023-05-19T05:57:36;8.00;99.90
30628;DHT22;17394;50.890;4.724;2023-05-19T06:00:02;8.10;99.90
30628;DHT22;17394;50.890;4.724;2023-05-19T06:02:30;8.10;99.90
30628;DHT22;17394;50.890;4.724;2023-05-19T06:04:56;8.20;99.90
30628;DHT22;17394;50.890;4.724;2023-05-19T06:07:21;8.20;99.90
30628;DHT22;17394;50.890;4.724;2023-05-19T06:09:48;8.30;99.90
30628;DHT22;17394;50.890;4.724;2023-05-19T06:12:14;8.40;99.90
30628;DHT22;17394;50.890;4.724;2023-05-19T06:14:39;8.50;99.90
30628;DHT22;17394;50.890;4.724;2023-05-19T06:17:05;8.60;99.90
30628;DHT22;17394;50.890;4.724;2023-05-19T06:19:31;8.70;99.90
30628;DHT22;17394;50.890;4.724;2023-05-19T06:21:56;8.80;99.90
30628;DHT22;17394;50.890;4.724;2023-05-19T06:24:22;8.90;99.90
30628;DHT22;17394;50.890;4.724;2023-05-19T06:26:48;9.00;99.90
30628;DHT22;17394;50.890;4.724;2023-05-19T06:29:13;9.10;99.90
30628;DHT22;17394;50.890;4.724;2023-05-19T06:31:39;9.20;99.90
30628;DHT22;17394;50.890;4.724;2023-05-19T06:34:05;9.40;99.90
30628;DHT22;17394;50.890;4.724;2023-05-19T06:36:31;9.50;99.90
30628;DHT22;17394;50.890;4.724;2023-05-19T06:38:57;9.70;99.90
30628;DHT22;17394;50.890;4.724;2023-05-19T06:41:24;9.90;99.90
30628;DHT22;17394;50.890;4.724;2023-05-19T06:43:51;10.00;99.90
30628;DHT22;17394;50.890;4.724;2023-05-19T06:46:17;10.20;99.90
30628;DHT22;17394;50.890;4.724;2023-05-19T06:48:43;10.50;99.90
30628;DHT22;17394;50.890;4.724;2023-05-19T06:51:09;10.70;99.90
30628;DHT22;17394;50.890;4.724;2023-05-19T06:53:35;10.90;99.90
30628;DHT22;17394;50.890;4.724;2023-05-19T06:56:01;11.10;99.90
30628;DHT22;17394;50.890;4.724;2023-05-19T06:58:26;11.30;99.90
30628;DHT22;17394;50.890;4.724;2023-05-19T07:00:52;11.50;99.90
30628;DHT22;17394;50.890;4.724;2023-05-19T07:03:18;11.70;99.90
30628;DHT22;17394;50.890;4.724;2023-05-19T07:05:43;11.90;99.90
30628;DHT22;17394;50.890;4.724;2023-05-19T07:08:09;11.90;99.90
30628;DHT22;17394;50.890;4.724;2023-05-19T07:10:35;12.10;99.90
30628;DHT22;17394;50.890;4.724;2023-05-19T07:13:01;12.30;99.90
30628;DHT22;17394;50.890;4.724;2023-05-19T07:15:26;12.40;99.90
30628;DHT22;17394;50.890;4.724;2023-05-19T07:17:52;12.60;99.90
30628;DHT22;17394;50.890;4.724;2023-05-19T07:20:17;12.80;99.90
30628;DHT22;17394;50.890;4.724;2023-05-19T07:22:43;13.10;99.90
30628;DHT22;17394;50.890;4.724;2023-05-19T07:25:09;13.30;99.90
30628;DHT22;17394;50.890;4.724;2023-05-19T07:27:35;13.50;99.90
30628;DHT22;17394;50.890;4.724;2023-05-19T07:30:01;13.70;99.90
30628;DHT22;17394;50.890;4.724;2023-05-19T07:32:28;13.90;99.90
30628;DHT22;17394;50.890;4.724;2023-05-19T07:34:54;14.00;99.90
30628;DHT22;17394;50.890;4.724;2023-05-19T07:37:20;14.10;99.90
30628;DHT22;17394;50.890;4.724;2023-05-19T07:39:46;14.20;99.90
30628;DHT22;17394;50.890;4.724;2023-05-19T07:42:11;14.20;99.90
30628;DHT22;17394;50.890;4.724;2023-05-19T07:44:37;14.40;99.90
30628;DHT22;17394;50.890;4.724;2023-05-19T07:47:03;14.60;99.90
30628;DHT22;17394;50.890;4.724;2023-05-19T07:49:29;14.80;99.90
30628;DHT22;17394;50.890;4.724;2023-05-19T07:51:55;14.80;99.90
30628;DHT22;17394;50.890;4.724;2023-05-19T07:54:20;14.60;99.90
30628;DHT22;17394;50.890;4.724;2023-05-19T07:56:46;14.80;99.90
30628;DHT22;17394;50.890;4.724;2023-05-19T07:59:13;15.00;99.90
30628;DHT22;17394;50.890;4.724;2023-05-19T08:01:39;15.10;99.90
30628;DHT22;17394;50.890;4.724;2023-05-19T08:04:05;15.00;99.90
30628;DHT22;17394;50.890;4.724;2023-05-19T08:06:30;15.00;99.90
30628;DHT22;17394;50.890;4.724;2023-05-19T08:08:56;15.20;99.90
30628;DHT22;17394;50.890;4.724;2023-05-19T08:11:22;15.50;99.90
30628;DHT22;17394;50.890;4.724;2023-05-19T08:13:48;15.70;99.90
30628;DHT22;17394;50.890;4.724;2023-05-19T08:16:14;15.70;99.90
30628;DHT22;17394;50.890;4.724;2023-05-19T08:18:40;15.80;99.90
30628;DHT22;17394;50.890;4.724;2023-05-19T08:21:06;15.90;99.90
30628;DHT22;17394;50.890;4.724;2023-05-19T08:23:32;16.10;99.90
30628;DHT22;17394;50.890;4.724;2023-05-19T08:25:58;16.20;99.90
30628;DHT22;17394;50.890;4.724;2023-05-19T08:28:23;16.30;99.90
30628;DHT22;17394;50.890;4.724;2023-05-19T08:30:50;16.40;99.90
30628;DHT22;17394;50.890;4.724;2023-05-19T08:33:17;16.70;99.90
30628;DHT22;17394;50.890;4.724;2023-05-19T08:35:45;16.90;99.90
30628;DHT22;17394;50.890;4.724;2023-05-19T08:38:10;16.90;99.90
30628;DHT22;17394;50.890;4.724;2023-05-19T08:40:36;17.00;99.90
30628;DHT22;17394;50.890;4.724;2023-05-19T08:43:02;17.10;99.90
30628;DHT22;17394;50.890;4.724;2023-05-19T08:45:28;17.20;99.90
30628;DHT22;17394;50.890;4.724;2023-05-19T08:47:54;17.30;99.90
30628;DHT22;17394;50.890;4.724;2023-05-19T08:50:22;17.20;99.90
30628;DHT22;17394;50.890;4.724;2023-05-19T08:52:55;17.30;99.90
30628;DHT22;17394;50.890;4.724;2023-05-19T08:57:58;17.50;99.90
30628;DHT22;17394;50.890;4.724;2023-05-19T09:00:24;17.50;99.90
30628;DHT22;17394;50.890;4.724;2023-05-19T09:02:50;17.50;99.90
30628;DHT22;17394;50.890;4.724;2023-05-19T09:05:16;17.50;99.90
30628;DHT22;17394;50.890;4.724;2023-05-19T09:07:42;17.80;99.90
30628;DHT22;17394;50.890;4.724;2023-05-19T09:10:08;17.90;99.90
30628;DHT22;17394;50.890;4.724;2023-05-19T09:12:33;17.90;99.90
30628;DHT22;17394;50.890;4.724;2023-05-19T09:15:00;18.10;99.90
30628;DHT22;17394;50.890;4.724;2023-05-19T09:17:26;18.30;99.90
30628;DHT22;17394;50.890;4.724;2023-05-19T09:19:52;18.30;99.90
30628;DHT22;17394;50.890;4.724;2023-05-19T09:22:18;18.30;99.90
30628;DHT22;17394;50.890;4.724;2023-05-19T09:24:45;18.40;99.90
30628;DHT22;17394;50.890;4.724;2023-05-19T09:27:13;18.50;99.90
30628;DHT22;17394;50.890;4.724;2023-05-19T09:29:39;18.70;99.90
30628;DHT22;17394;50.890;4.724;2023-05-19T09:32:05;18.60;99.90
30628;DHT22;17394;50.890;4.724;2023-05-19T09:34:30;18.50;99.90
30628;DHT22;17394;50.890;4.724;2023-05-19T09:36:57;18.50;99.90
30628;DHT22;17394;50.890;4.724;2023-05-19T09:39:24;18.70;99.90
30628;DHT22;17394;50.890;4.724;2023-05-19T09:41:53;18.60;99.90
30628;DHT22;17394;50.890;4.724;2023-05-19T09:44:21;18.40;99.90
30628;DHT22;17394;50.890;4.724;2023-05-19T09:46:51;18.20;99.90
30628;DHT22;17394;50.890;4.724;2023-05-19T09:49:20;18.20;99.90
30628;DHT22;17394;50.890;4.724;2023-05-19T09:51:50;18.30;99.90
30628;DHT22;17394;50.890;4.724;2023-05-19T09:54:18;18.50;99.90
30628;DHT22;17394;50.890;4.724;2023-05-19T09:56:44;18.70;99.90
30628;DHT22;17394;50.890;4.724;2023-05-19T09:59:10;18.80;99.90
30628;DHT22;17394;50.890;4.724;2023-05-19T10:01:37;18.70;99.90
30628;DHT22;17394;50.890;4.724;2023-05-19T10:04:05;18.70;99.90
30628;DHT22;17394;50.890;4.724;2023-05-19T10:06:31;18.60;99.90
30628;DHT22;17394;50.890;4.724;2023-05-19T10:08:57;18.70;99.90
30628;DHT22;17394;50.890;4.724;2023-05-19T10:11:23;18.90;99.90
30628;DHT22;17394;50.890;4.724;2023-05-19T10:13:49;19.20;99.90
30628;DHT22;17394;50.890;4.724;2023-05-19T10:16:15;19.60;99.90
30628;DHT22;17394;50.890;4.724;2023-05-19T10:18:41;20.00;99.90
30628;DHT22;17394;50.890;4.724;2023-05-19T10:21:07;20.30;99.90
30628;DHT22;17394;50.890;4.724;2023-05-19T10:23:33;20.50;99.90
30628;DHT22;17394;50.890;4.724;2023-05-19T10:25:59;20.60;99.90
30628;DHT22;17394;50.890;4.724;2023-05-19T10:28:28;20.50;99.90
30628;DHT22;17394;50.890;4.724;2023-05-19T10:30:56;20.20;99.90
30628;DHT22;17394;50.890;4.724;2023-05-19T10:33:30;19.80;99.90
30628;DHT22;17394;50.890;4.724;2023-05-19T10:36:09;19.40;99.90
30628;DHT22;17394;50.890;4.724;2023-05-19T10:46:36;20.20;99.90
30628;DHT22;17394;50.890;4.724;2023-05-19T10:49:05;20.60;99.90
30628;DHT22;17394;50.890;4.724;2023-05-19T10:51:32;20.60;99.20
30628;DHT22;17394;50.890;4.724;2023-05-19T10:54:00;20.50;98.10
30628;DHT22;17394;50.890;4.724;2023-05-19T10:56:28;20.50;99.60
30628;DHT22;17394;50.890;4.724;2023-05-19T10:58:54;20.70;99.90
30628;DHT22;17394;50.890;4.724;2023-05-19T11:01:20;20.90;99.40
30628;DHT22;17394;50.890;4.724;2023-05-19T11:03:53;21.00;99.90
30628;DHT22;17394;50.890;4.724;2023-05-19T11:06:28;21.10;97.20
30628;DHT22;17394;50.890;4.724;2023-05-19T11:08:58;21.10;97.60
30628;DHT22;17394;50.890;4.724;2023-05-19T11:11:41;20.90;96.20
30628;DHT22;17394;50.890;4.724;2023-05-19T11:14:08;20.70;97.60
30628;DHT22;17394;50.890;4.724;2023-05-19T11:16:35;20.60;95.40
30628;DHT22;17394;50.890;4.724;2023-05-19T11:19:00;20.50;95.30
30628;DHT22;17394;50.890;4.724;2023-05-19T11:24:31;20.10;95.80
30628;DHT22;17394;50.890;4.724;2023-05-19T11:26:56;20.00;96.90
30628;DHT22;17394;50.890;4.724;2023-05-19T11:29:22;19.90;95.70
30628;DHT22;17394;50.890;4.724;2023-05-19T11:31:48;20.00;96.20
30628;DHT22;17394;50.890;4.724;2023-05-19T11:34:14;20.00;96.20
30628;DHT22;17394;50.890;4.724;2023-05-19T11:36:40;20.10;97.00
30628;DHT22;17394;50.890;4.724;2023-05-19T11:39:07;20.30;95.60
30628;DHT22;17394;50.890;4.724;2023-05-19T11:41:37;20.20;94.50
30628;DHT22;17394;50.890;4.724;2023-05-19T11:44:08;19.80;95.90
30628;DHT22;17394;50.890;4.724;2023-05-19T11:46:33;19.90;96.90
30628;DHT22;17394;50.890;4.724;2023-05-19T11:48:59;20.20;96.90
30628;DHT22;17394;50.890;4.724;2023-05-19T11:51:26;20.50;97.20
30628;DHT22;17394;50.890;4.724;2023-05-19T11:53:52;20.70;96.80
30628;DHT22;17394;50.890;4.724;2023-05-19T11:56:19;20.90;94.70
30628;DHT22;17394;50.890;4.724;2023-05-19T11:58:45;21.10;96.30
30628;DHT22;17394;50.890;4.724;2023-05-19T12:01:11;21.40;95.60
30628;DHT22;17394;50.890;4.724;2023-05-19T12:03:37;21.60;96.00
30628;DHT22;17394;50.890;4.724;2023-05-19T12:06:02;21.80;96.30
30628;DHT22;17394;50.890;4.724;2023-05-19T12:08:30;22.10;94.80
30628;DHT22;17394;50.890;4.724;2023-05-19T12:10:55;22.30;94.00
30628;DHT22;17394;50.890;4.724;2023-05-19T12:13:21;22.40;93.00
30628;DHT22;17394;50.890;4.724;2023-05-19T12:15:49;22.00;93.30
30628;DHT22;17394;50.890;4.724;2023-05-19T12:18:14;21.60;93.20
30628;DHT22;17394;50.890;4.724;2023-05-19T12:20:40;21.30;92.50
30628;DHT22;17394;50.890;4.724;2023-05-19T12:23:06;21.40;93.90
30628;DHT22;17394;50.890;4.724;2023-05-19T12:25:31;21.50;92.10
30628;DHT22;17394;50.890;4.724;2023-05-19T12:28:00;21.30;91.70
30628;DHT22;17394;50.890;4.724;2023-05-19T12:30:29;21.20;91.20
30628;DHT22;17394;50.890;4.724;2023-05-19T12:32:55;21.10;91.70
30628;DHT22;17394;50.890;4.724;2023-05-19T12:35:29;21.20;92.30
30628;DHT22;17394;50.890;4.724;2023-05-19T12:37:56;21.20;91.20
30628;DHT22;17394;50.890;4.724;2023-05-19T12:40:28;21.30;90.60
30628;DHT22;17394;50.890;4.724;2023-05-19T12:42:55;21.10;90.00
30628;DHT22;17394;50.890;4.724;2023-05-19T12:45:23;20.90;91.00
30628;DHT22;17394;50.890;4.724;2023-05-19T12:47:50;20.80;91.50
30628;DHT22;17394;50.890;4.724;2023-05-19T12:50:16;20.90;92.50
30628;DHT22;17394;50.890;4.724;2023-05-19T12:52:43;21.10;92.40
30628;DHT22;17394;50.890;4.724;2023-05-19T12:55:09;21.30;91.50
30628;DHT22;17394;50.890;4.724;2023-05-19T12:57:36;21.60;93.20
30628;DHT22;17394;50.890;4.724;2023-05-19T13:00:03;21.70;92.00
30628;DHT22;17394;50.890;4.724;2023-05-19T13:02:34;21.70;92.50
30628;DHT22;17394;50.890;4.724;2023-05-19T13:05:01;21.80;91.40
30628;DHT22;17394;50.890;4.724;2023-05-19T13:07:27;21.70;90.20
30628;DHT22;17394;50.890;4.724;2023-05-19T13:09:53;21.60;88.70
30628;DHT22;17394;50.890;4.724;2023-05-19T13:12:19;21.60;90.70
30628;DHT22;17394;50.890;4.724;2023-05-19T13:14:45;21.80;90.20
30628;DHT22;17394;50.890;4.724;2023-05-19T13:17:10;21.90;91.10
30628;DHT22;17394;50.890;4.724;2023-05-19T13:19:36;22.10;91.80
30628;DHT22;17394;50.890;4.724;2023-05-19T13:22:02;22.30;90.40
30628;DHT22;17394;50.890;4.724;2023-05-19T13:24:27;22.20;85.50
30628;DHT22;17394;50.890;4.724;2023-05-19T13:26:54;22.00;85.50
30628;DHT22;17394;50.890;4.724;2023-05-19T13:29:19;21.80;83.50
30628;DHT22;17394;50.890;4.724;2023-05-19T13:31:45;21.70;82.50
30628;DHT22;17394;50.890;4.724;2023-05-19T13:34:10;21.40;81.40
30628;DHT22;17394;50.890;4.724;2023-05-19T13:36:36;21.10;84.00
30628;DHT22;17394;50.890;4.724;2023-05-19T13:39:03;21.20;85.00
30628;DHT22;17394;50.890;4.724;2023-05-19T13:41:29;21.40;85.00
30628;DHT22;17394;50.890;4.724;2023-05-19T13:43:58;21.60;84.60
30628;DHT22;17394;50.890;4.724;2023-05-19T13:46:24;21.70;87.20
30628;DHT22;17394;50.890;4.724;2023-05-19T13:48:51;22.00;88.80
30628;DHT22;17394;50.890;4.724;2023-05-19T13:51:16;22.40;89.30
30628;DHT22;17394;50.890;4.724;2023-05-19T13:53:42;22.40;87.30
30628;DHT22;17394;50.890;4.724;2023-05-19T13:56:08;22.20;86.90
30628;DHT22;17394;50.890;4.724;2023-05-19T13:58:34;22.20;89.90
30628;DHT22;17394;50.890;4.724;2023-05-19T14:00:59;22.40;90.10
30628;DHT22;17394;50.890;4.724;2023-05-19T14:03:25;22.50;86.20
30628;DHT22;17394;50.890;4.724;2023-05-19T14:05:51;22.50;85.60
30628;DHT22;17394;50.890;4.724;2023-05-19T14:08:17;22.50;84.30
30628;DHT22;17394;50.890;4.724;2023-05-19T14:10:46;22.40;82.30
30628;DHT22;17394;50.890;4.724;2023-05-19T14:13:12;22.20;81.60
30628;DHT22;17394;50.890;4.724;2023-05-19T14:15:37;21.90;79.70
30628;DHT22;17394;50.890;4.724;2023-05-19T14:18:03;21.80;82.70
30628;DHT22;17394;50.890;4.724;2023-05-19T14:20:29;21.70;84.60
30628;DHT22;17394;50.890;4.724;2023-05-19T14:22:55;21.80;84.20
30628;DHT22;17394;50.890;4.724;2023-05-19T14:25:21;22.00;85.20
30628;DHT22;17394;50.890;4.724;2023-05-19T14:27:46;22.10;81.60
30628;DHT22;17394;50.890;4.724;2023-05-19T14:30:12;22.20;83.90
30628;DHT22;17394;50.890;4.724;2023-05-19T14:32:38;22.40;85.20
30628;DHT22;17394;50.890;4.724;2023-05-19T14:35:03;22.50;85.60
30628;DHT22;17394;50.890;4.724;2023-05-19T14:37:29;22.50;83.90
30628;DHT22;17394;50.890;4.724;2023-05-19T14:39:59;22.50;81.50
30628;DHT22;17394;50.890;4.724;2023-05-19T14:42:25;22.50;84.00
30628;DHT22;17394;50.890;4.724;2023-05-19T14:44:50;22.60;81.40
30628;DHT22;17394;50.890;4.724;2023-05-19T14:47:16;22.60;82.50
30628;DHT22;17394;50.890;4.724;2023-05-19T14:49:42;22.80;85.20
30628;DHT22;17394;50.890;4.724;2023-05-19T14:52:07;22.80;83.40
30628;DHT22;17394;50.890;4.724;2023-05-19T14:54:33;22.90;83.50
30628;DHT22;17394;50.890;4.724;2023-05-19T14:56:58;22.80;81.50
30628;DHT22;17394;50.890;4.724;2023-05-19T14:59:25;22.70;82.40
30628;DHT22;17394;50.890;4.724;2023-05-19T15:01:51;22.80;84.50
30628;DHT22;17394;50.890;4.724;2023-05-19T15:04:17;22.80;82.00
30628;DHT22;17394;50.890;4.724;2023-05-19T15:06:43;22.90;80.90
30628;DHT22;17394;50.890;4.724;2023-05-19T15:09:08;22.90;80.90
30628;DHT22;17394;50.890;4.724;2023-05-19T15:11:36;22.80;82.80
30628;DHT22;17394;50.890;4.724;2023-05-19T15:14:01;22.80;83.00
30628;DHT22;17394;50.890;4.724;2023-05-19T15:16:27;22.90;81.30
30628;DHT22;17394;50.890;4.724;2023-05-19T15:18:52;22.90;83.50
30628;DHT22;17394;50.890;4.724;2023-05-19T15:21:18;22.90;81.10
30628;DHT22;17394;50.890;4.724;2023-05-19T15:23:44;23.00;81.40
30628;DHT22;17394;50.890;4.724;2023-05-19T15:26:09;22.90;81.30
30628;DHT22;17394;50.890;4.724;2023-05-19T15:28:35;22.90;81.10
30628;DHT22;17394;50.890;4.724;2023-05-19T15:31:01;22.80;77.40
30628;DHT22;17394;50.890;4.724;2023-05-19T15:33:26;22.50;79.00
30628;DHT22;17394;50.890;4.724;2023-05-19T15:35:52;22.40;80.40
30628;DHT22;17394;50.890;4.724;2023-05-19T15:38:18;22.50;83.30
30628;DHT22;17394;50.890;4.724;2023-05-19T15:40:44;22.70;81.90
30628;DHT22;17394;50.890;4.724;2023-05-19T15:43:10;22.70;82.10
30628;DHT22;17394;50.890;4.724;2023-05-19T15:45:36;22.80;84.30
30628;DHT22;17394;50.890;4.724;2023-05-19T15:48:02;22.90;85.00
30628;DHT22;17394;50.890;4.724;2023-05-19T15:50:28;22.80;79.20
30628;DHT22;17394;50.890;4.724;2023-05-19T15:52:53;22.50;78.60
30628;DHT22;17394;50.890;4.724;2023-05-19T15:55:19;22.40;80.60
30628;DHT22;17394;50.890;4.724;2023-05-19T15:57:45;22.30;81.80
30628;DHT22;17394;50.890;4.724;2023-05-19T16:00:10;22.40;81.50
30628;DHT22;17394;50.890;4.724;2023-05-19T16:02:36;22.40;83.90